Time;durP1;ratioP1;P1;durP2;ratioP2;P2;SDS_P1;SDS_P2;PMS_P1;PMS_P2;Temp;Humidity;BMP_temperature;BMP_pressure;BME280_temperature;BME280_humidity;BME280_pressure;Samples;Min_cycle;Max_cycle;Signal;HPM_P1;HPM_P2
2024/04/02 00:01:19;;;;;;;2.58;1.05;;;;;;;;;;5052051;28;20052;-57
2024/04/02 00:03:45;;;;;;;2.28;0.88;;;;;;;;;;5044423;28;20064;-57
2024/04/02 00:06:12;;;;;;;3.08;1.10;;;;;;;;;;5052181;28;20048;-58
2024/04/02 00:08:38;;;;;;;2.67;0.90;;;;;;;;;;5043336;28;20049;-58
2024/04/02 00:11:05;;;;;;;3.13;1.00;;;;;;;;;;5052338;28;20049;-58
2024/04/02 00:13:31;;;;;;;3.13;1.20;;;;;;;;;;5051859;28;20052;-58
2024/04/02 00:15:58;;;;;;;2.85;1.00;;;;;;;;;;5051785;28;20483;-58
2024/04/02 00:18:25;;;;;;;1.88;0.80;;;;;;;;;;5043641;28;20041;-58
2024/04/02 00:20:52;;;;;;;3.58;1.20;;;;;;;;;;5052156;28;20055;-58
2024/04/02 00:23:18;;;;;;;3.35;1.00;;;;;;;;;;5043742;28;20379;-58
2024/04/02 00:25:46;;;;;;;3.30;0.93;;;;;;;;;;5051694;28;20095;-57
2024/04/02 00:28:12;;;;;;;1.30;0.70;;;;;;;;;;5043563;28;20049;-58
2024/04/02 00:30:39;;;;;;;2.67;1.02;;;;;;;;;;5053174;28;20049;-58
2024/04/02 00:33:05;;;;;;;3.33;1.13;;;;;;;;;;5047281;28;20057;-58
2024/04/02 00:35:33;;;;;;;2.75;1.00;;;;;;;;;;5047025;28;20399;-58
2024/04/02 00:37:59;;;;;;;2.65;1.00;;;;;;;;;;5048203;28;20053;-58
2024/04/02 00:40:26;;;;;;;2.60;1.00;;;;;;;;;;5054307;28;20087;-58
2024/04/02 00:42:52;;;;;;;3.05;0.88;;;;;;;;;;5049532;28;20402;-58
2024/04/02 00:45:19;;;;;;;3.45;1.20;;;;;;;;;;5053294;28;20056;-58
2024/04/02 00:47:46;;;;;;;2.50;0.80;;;;;;;;;;5054949;28;20061;-58
2024/04/02 00:50:14;;;;;;;3.65;1.10;;;;;;;;;;5055692;28;20049;-58
2024/04/02 00:52:41;;;;;;;3.70;1.05;;;;;;;;;;5050324;28;20058;-58
2024/04/02 00:55:08;;;;;;;3.85;1.30;;;;;;;;;;5051963;28;20057;-58
2024/04/02 00:57:34;;;;;;;3.47;0.90;;;;;;;;;;5051346;28;20395;-57
2024/04/02 01:00:01;;;;;;;4.63;1.00;;;;;;;;;;5050469;28;20080;-58
2024/04/02 01:02:27;;;;;;;4.18;1.00;;;;;;;;;;5051588;28;20057;-58
2024/04/02 01:04:54;;;;;;;1.73;0.82;;;;;;;;;;5049708;28;20048;-58
2024/04/02 01:07:20;;;;;;;2.95;1.00;;;;;;;;;;5052739;28;20056;-58
2024/04/02 01:09:48;;;;;;;2.80;1.02;;;;;;;;;;5047674;28;20045;-58
2024/04/02 01:12:14;;;;;;;3.72;1.25;;;;;;;;;;5054719;28;20057;-58
2024/04/02 01:14:41;;;;;;;3.05;0.90;;;;;;;;;;5054477;28;20462;-58
2024/04/02 01:17:07;;;;;;;2.53;0.98;;;;;;;;;;5054652;28;20083;-61
2024/04/02 01:19:33;;;;;;;2.30;1.00;;;;;;;;;;5046737;28;20059;-58
2024/04/02 01:21:59;;;;;;;4.18;1.17;;;;;;;;;;5054977;28;20155;-58
2024/04/02 01:24:27;;;;;;;3.67;1.02;;;;;;;;;;5046603;28;20107;-58
2024/04/02 01:26:54;;;;;;;2.60;1.20;;;;;;;;;;5055038;28;20415;-59
2024/04/02 01:29:21;;;;;;;2.50;1.00;;;;;;;;;;5046716;28;20056;-58
2024/04/02 01:31:47;;;;;;;2.08;1.00;;;;;;;;;;5054786;28;20064;-58
2024/04/02 01:34:13;;;;;;;2.63;1.00;;;;;;;;;;5046454;28;20421;-59
2024/04/02 01:36:39;;;;;;;2.40;1.10;;;;;;;;;;5055299;28;20052;-58
2024/04/02 01:39:07;;;;;;;2.47;1.00;;;;;;;;;;5046228;28;20053;-58
2024/04/02 01:41:32;;;;;;;2.67;0.90;;;;;;;;;;5053756;28;20056;-59
2024/04/02 01:44:01;;;;;;;2.35;1.17;;;;;;;;;;5045428;28;20454;-58
2024/04/02 01:46:26;;;;;;;3.38;1.10;;;;;;;;;;5053920;28;20416;-58
2024/04/02 01:48:53;;;;;;;3.38;0.93;;;;;;;;;;5054164;28;20049;-58
2024/04/02 01:51:19;;;;;;;2.83;0.93;;;;;;;;;;5054414;28;20072;-58
2024/04/02 01:53:46;;;;;;;2.60;1.00;;;;;;;;;;5045736;28;20053;-58
2024/04/02 01:56:11;;;;;;;4.25;1.10;;;;;;;;;;5053930;28;20056;-58
2024/04/02 01:58:38;;;;;;;4.40;1.42;;;;;;;;;;5046014;28;20470;-58
2024/04/02 02:01:05;;;;;;;2.97;1.13;;;;;;;;;;5053887;28;20048;-58
2024/04/02 02:03:32;;;;;;;3.35;1.23;;;;;;;;;;5045556;28;20049;-58
2024/04/02 02:05:58;;;;;;;3.67;1.17;;;;;;;;;;5053879;28;20064;-58
2024/04/02 02:08:25;;;;;;;5.13;1.20;;;;;;;;;;5045713;28;20049;-58
2024/04/02 02:10:53;;;;;;;3.22;0.90;;;;;;;;;;5053705;28;20049;-58
2024/04/02 02:13:20;;;;;;;3.20;1.13;;;;;;;;;;5053752;28;20375;-58
2024/04/02 02:15:56;;;;;;;2.75;1.13;;;;;;;;;;5053263;28;20099;-58
2024/04/02 02:18:24;;;;;;;2.55;1.00;;;;;;;;;;5045473;28;20390;-58
2024/04/02 02:20:50;;;;;;;2.67;1.20;;;;;;;;;;5053871;28;20063;-58
2024/04/02 02:23:16;;;;;;;2.10;1.00;;;;;;;;;;5045088;28;20049;-58
2024/04/02 02:25:42;;;;;;;2.65;1.00;;;;;;;;;;5053270;28;20045;-58
2024/04/02 02:28:09;;;;;;;3.65;1.30;;;;;;;;;;5045415;28;20084;-58
2024/04/02 02:30:35;;;;;;;2.60;1.10;;;;;;;;;;5053419;28;20068;-58
2024/04/02 02:33:02;;;;;;;7.57;1.52;;;;;;;;;;5045854;28;20081;-58
2024/04/02 02:35:29;;;;;;;4.05;1.08;;;;;;;;;;5052897;28;20056;-58
2024/04/02 02:37:56;;;;;;;2.85;0.93;;;;;;;;;;5046277;28;20057;-59
2024/04/02 02:40:22;;;;;;;2.85;1.30;;;;;;;;;;5051514;28;20059;-58
2024/04/02 02:42:48;;;;;;;3.47;1.20;;;;;;;;;;5047252;28;20076;-58
2024/04/02 02:45:14;;;;;;;2.63;1.20;;;;;;;;;;5051122;28;20487;-59
2024/04/02 02:47:41;;;;;;;3.78;1.70;;;;;;;;;;5052944;28;20052;-58
2024/04/02 02:50:07;;;;;;;2.45;1.10;;;;;;;;;;5053065;28;20045;-58
2024/04/02 02:52:36;;;;;;;3.10;0.88;;;;;;;;;;5049436;28;20088;-58
2024/04/02 02:55:02;;;;;;;5.55;1.40;;;;;;;;;;5048543;28;20053;-58
2024/04/02 02:57:29;;;;;;;3.28;1.15;;;;;;;;;;5049647;28;20049;-58
2024/04/02 02:59:55;;;;;;;4.03;1.45;;;;;;;;;;5047855;28;20049;-58
2024/04/02 03:02:22;;;;;;;4.03;1.40;;;;;;;;;;5050158;28;20052;-59
2024/04/02 03:04:49;;;;;;;2.92;1.00;;;;;;;;;;5047321;28;20053;-58
2024/04/02 03:07:15;;;;;;;3.58;1.52;;;;;;;;;;5051489;28;20376;-58
2024/04/02 03:09:43;;;;;;;1.65;0.90;;;;;;;;;;5045540;28;20052;-58
2024/04/02 03:12:10;;;;;;;4.28;1.33;;;;;;;;;;5051521;28;20049;-58
2024/04/02 03:14:36;;;;;;;3.17;1.00;;;;;;;;;;5045382;28;20057;-59
2024/04/02 03:17:02;;;;;;;3.50;1.40;;;;;;;;;;5052800;28;20067;-58
2024/04/02 03:19:29;;;;;;;2.28;1.13;;;;;;;;;;5044737;28;20502;-58
2024/04/02 03:21:56;;;;;;;3.75;1.38;;;;;;;;;;5052576;28;20063;-58
2024/04/02 03:24:21;;;;;;;4.13;1.30;;;;;;;;;;5044530;28;20053;-58
2024/04/02 03:26:49;;;;;;;4.13;1.40;;;;;;;;;;5052421;28;20048;-58
2024/04/02 03:29:15;;;;;;;4.47;1.50;;;;;;;;;;5044532;28;20056;-58
2024/04/02 03:31:42;;;;;;;3.83;1.48;;;;;;;;;;5052655;28;20127;-58
2024/04/02 03:34:08;;;;;;;5.28;1.50;;;;;;;;;;5044422;28;20207;-59
2024/04/02 03:36:35;;;;;;;3.40;1.25;;;;;;;;;;5052362;28;20474;-58
2024/04/02 03:39:02;;;;;;;3.08;1.13;;;;;;;;;;5044162;28;20380;-59
2024/04/02 03:41:29;;;;;;;2.92;1.40;;;;;;;;;;5052408;28;20064;-58
2024/04/02 03:43:57;;;;;;;4.97;1.60;;;;;;;;;;5044075;28;20059;-58
2024/04/02 03:46:24;;;;;;;3.35;1.48;;;;;;;;;;5051960;28;20064;-58
2024/04/02 03:48:50;;;;;;;2.75;1.20;;;;;;;;;;5052694;28;20048;-58
2024/04/02 03:51:16;;;;;;;2.58;1.38;;;;;;;;;;5052537;28;20394;-58
2024/04/02 03:53:42;;;;;;;3.63;1.65;;;;;;;;;;5044358;28;20052;-58
2024/04/02 03:56:09;;;;;;;2.72;1.40;;;;;;;;;;5052548;28;20053;-58
2024/04/02 03:58:35;;;;;;;2.38;1.50;;;;;;;;;;5044218;28;20049;-58
2024/04/02 04:01:05;;;;;;;5.70;1.75;;;;;;;;;;5052347;28;20099;-58
2024/04/02 04:03:31;;;;;;;3.15;1.40;;;;;;;;;;5043990;28;20378;-58
2024/04/02 04:05:58;;;;;;;3.80;1.38;;;;;;;;;;5053026;28;20079;-58
2024/04/02 04:08:25;;;;;;;4.03;1.50;;;;;;;;;;5047106;28;20352;-58
2024/04/02 04:10:51;;;;;;;4.43;1.83;;;;;;;;;;5055815;28;20049;-58
2024/04/02 04:13:17;;;;;;;3.30;1.75;;;;;;;;;;5047896;28;20065;-58
2024/04/02 04:15:50;;;;;;;4.00;1.77;;;;;;;;;;5055693;28;20502;-58
2024/04/02 04:18:17;;;;;;;4.32;1.63;;;;;;;;;;5055995;28;20053;-58
2024/04/02 04:20:51;;;;;;;3.65;1.70;;;;;;;;;;5055589;28;20525;-58
2024/04/02 04:23:17;;;;;;;4.03;1.60;;;;;;;;;;5047574;28;20049;-58
2024/04/02 04:25:43;;;;;;;4.85;1.52;;;;;;;;;;5055604;28;20056;-58
2024/04/02 04:28:09;;;;;;;3.38;1.55;;;;;;;;;;5047562;28;20053;-58
2024/04/02 04:30:36;;;;;;;3.90;1.45;;;;;;;;;;5055327;28;20056;-58
2024/04/02 04:33:03;;;;;;;2.92;1.67;;;;;;;;;;5047849;28;20466;-58
2024/04/02 04:35:34;;;;;;;2.45;1.48;;;;;;;;;;5046843;28;20072;-58
2024/04/02 04:38:00;;;;;;;4.25;1.60;;;;;;;;;;5048122;28;20479;-58
2024/04/02 04:40:27;;;;;;;2.45;1.40;;;;;;;;;;5054565;28;20053;-58
2024/04/02 04:42:52;;;;;;;3.20;1.27;;;;;;;;;;5048477;28;20058;-58
2024/04/02 04:45:19;;;;;;;4.55;1.55;;;;;;;;;;5053842;28;20049;-58
2024/04/02 04:47:45;;;;;;;3.42;1.45;;;;;;;;;;5055405;28;20494;-58
2024/04/02 04:50:12;;;;;;;3.47;1.50;;;;;;;;;;5055339;28;20056;-58
2024/04/02 04:52:39;;;;;;;3.72;1.80;;;;;;;;;;5050649;28;20060;-58
2024/04/02 04:55:06;;;;;;;4.47;1.67;;;;;;;;;;5051547;28;20048;-58
2024/04/02 04:57:32;;;;;;;5.43;1.60;;;;;;;;;;5051538;28;20057;-58
2024/04/02 04:59:59;;;;;;;3.10;1.48;;;;;;;;;;5050533;28;20083;-58
2024/04/02 05:02:24;;;;;;;6.18;1.70;;;;;;;;;;5052446;28;20490;-58
2024/04/02 05:04:51;;;;;;;4.55;1.40;;;;;;;;;;5049575;28;20053;-58
2024/04/02 05:07:21;;;;;;;4.53;1.58;;;;;;;;;;5053589;28;20053;-58
2024/04/02 05:09:49;;;;;;;5.78;1.63;;;;;;;;;;5048745;28;20052;-58
2024/04/02 05:12:15;;;;;;;3.08;1.48;;;;;;;;;;5053220;28;20048;-58
2024/04/02 05:14:42;;;;;;;3.70;1.20;;;;;;;;;;5047598;28;20053;-58
2024/04/02 05:17:07;;;;;;;2.95;1.60;;;;;;;;;;5053294;28;20057;-58
2024/04/02 05:19:34;;;;;;;4.65;1.80;;;;;;;;;;5054307;28;20041;-58
2024/04/02 05:22:00;;;;;;;4.53;1.50;;;;;;;;;;5054228;28;20059;-58
2024/04/02 05:24:27;;;;;;;4.60;1.60;;;;;;;;;;5046484;28;20052;-58
2024/04/02 05:26:54;;;;;;;3.03;1.48;;;;;;;;;;5054311;28;20049;-58
2024/04/02 05:29:21;;;;;;;5.30;1.85;;;;;;;;;;5046133;28;20068;-58
2024/04/02 05:31:46;;;;;;;5.90;1.70;;;;;;;;;;5054024;28;20414;-58
2024/04/02 05:34:13;;;;;;;3.60;1.70;;;;;;;;;;5046200;28;20083;-58
2024/04/02 05:36:39;;;;;;;6.93;1.75;;;;;;;;;;5054546;28;20414;-58
2024/04/02 05:39:06;;;;;;;4.53;1.83;;;;;;;;;;5046051;28;20045;-58
2024/04/02 05:41:32;;;;;;;6.88;2.35;;;;;;;;;;5053995;28;20398;-58
2024/04/02 05:44:00;;;;;;;7.13;2.10;;;;;;;;;;5045915;28;20052;-58
2024/04/02 05:46:26;;;;;;;6.28;2.85;;;;;;;;;;5053314;28;20419;-59
2024/04/02 05:48:53;;;;;;;9.25;4.07;;;;;;;;;;5054063;28;20052;-60
2024/04/02 05:51:18;;;;;;;7.85;3.55;;;;;;;;;;5054182;28;20384;-59
2024/04/02 05:53:46;;;;;;;8.63;3.15;;;;;;;;;;5045274;28;20051;-59
2024/04/02 05:56:13;;;;;;;7.30;3.17;;;;;;;;;;5053799;28;20057;-59
2024/04/02 05:58:39;;;;;;;6.05;3.20;;;;;;;;;;5045981;28;20052;-59
2024/04/02 06:01:07;;;;;;;5.65;3.20;;;;;;;;;;5053863;28;20045;-60
2024/04/02 06:03:34;;;;;;;6.82;3.60;;;;;;;;;;5045688;28;20414;-59
2024/04/02 06:05:59;;;;;;;9.00;3.65;;;;;;;;;;5053796;28;20057;-59
2024/04/02 06:08:27;;;;;;;6.50;4.35;;;;;;;;;;5045488;28;20501;-59
2024/04/02 06:10:52;;;;;;;9.48;4.10;;;;;;;;;;5053493;28;20056;-59
2024/04/02 06:13:19;;;;;;;6.40;3.45;;;;;;;;;;5053723;28;20048;-59
2024/04/02 06:15:45;;;;;;;7.13;4.32;;;;;;;;;;5053356;28;20060;-59
2024/04/02 06:18:13;;;;;;;5.25;3.90;;;;;;;;;;5045056;28;20053;-59
2024/04/02 06:20:39;;;;;;;9.02;4.50;;;;;;;;;;5053103;28;20048;-59
2024/04/02 06:23:06;;;;;;;9.18;5.05;;;;;;;;;;5045495;28;20546;-59
2024/04/02 06:25:31;;;;;;;6.00;3.95;;;;;;;;;;5044780;28;20049;-59
2024/04/02 06:27:58;;;;;;;8.80;4.55;;;;;;;;;;5046034;28;20380;-59
2024/04/02 06:30:24;;;;;;;10.10;4.45;;;;;;;;;;5051863;28;20051;-59
2024/04/02 06:32:51;;;;;;;6.15;3.90;;;;;;;;;;5046924;28;20057;-58
2024/04/02 06:35:18;;;;;;;8.27;3.75;;;;;;;;;;5051342;28;20060;-59
2024/04/02 06:37:45;;;;;;;6.00;3.72;;;;;;;;;;5047756;28;20072;-59
2024/04/02 06:40:11;;;;;;;6.70;3.97;;;;;;;;;;5050194;28;20379;-59
2024/04/02 06:42:37;;;;;;;6.38;3.60;;;;;;;;;;5048306;28;20128;-59
2024/04/02 06:45:04;;;;;;;7.88;3.58;;;;;;;;;;5049288;28;20049;-58
2024/04/02 06:47:31;;;;;;;7.97;3.67;;;;;;;;;;5052072;28;20063;-58
2024/04/02 06:49:56;;;;;;;6.35;3.53;;;;;;;;;;5052638;28;20135;-59
2024/04/02 06:52:24;;;;;;;7.00;3.60;;;;;;;;;;5050317;28;20063;-59
2024/04/02 06:54:50;;;;;;;7.18;3.58;;;;;;;;;;5047212;28;20486;-59
2024/04/02 06:57:17;;;;;;;7.93;2.67;;;;;;;;;;5051216;28;20080;-58
2024/04/02 06:59:45;;;;;;;7.97;2.55;;;;;;;;;;5046505;28;20053;-58
2024/04/02 07:02:11;;;;;;;5.13;2.50;;;;;;;;;;5051988;28;20498;-58
2024/04/02 07:04:37;;;;;;;7.70;3.25;;;;;;;;;;5053133;28;20064;-58
2024/04/02 07:07:04;;;;;;;6.70;3.08;;;;;;;;;;5052332;28;20048;-59
2024/04/02 07:09:33;;;;;;;7.63;2.60;;;;;;;;;;5052944;28;20390;-58
2024/04/02 07:12:00;;;;;;;9.40;2.88;;;;;;;;;;5052628;28;20410;-59
2024/04/02 07:14:26;;;;;;;4.80;2.33;;;;;;;;;;5044481;28;20063;-59
2024/04/02 07:16:55;;;;;;;7.72;2.60;;;;;;;;;;5052179;28;20045;-58
2024/04/02 07:19:22;;;;;;;6.55;2.65;;;;;;;;;;5044556;28;20537;-58
2024/04/02 07:21:49;;;;;;;5.03;2.30;;;;;;;;;;5052316;28;20052;-58
2024/04/02 07:24:15;;;;;;;7.57;2.20;;;;;;;;;;5044373;28;20064;-59
2024/04/02 07:26:43;;;;;;;6.45;2.40;;;;;;;;;;5052529;28;20057;-59
2024/04/02 07:29:09;;;;;;;6.78;2.30;;;;;;;;;;5044146;28;20403;-59
2024/04/02 07:31:36;;;;;;;7.97;2.40;;;;;;;;;;5051934;28;20080;-59
2024/04/02 07:34:03;;;;;;;7.05;2.38;;;;;;;;;;5043920;28;20064;-59
2024/04/02 07:36:29;;;;;;;6.38;2.40;;;;;;;;;;5052407;28;20414;-59
2024/04/02 07:38:55;;;;;;;8.57;2.20;;;;;;;;;;5044268;28;20060;-59
2024/04/02 07:41:22;;;;;;;7.75;2.33;;;;;;;;;;5054152;28;20475;-59
2024/04/02 07:43:49;;;;;;;8.02;2.50;;;;;;;;;;5047601;28;20472;-60
2024/04/02 07:46:16;;;;;;;8.63;2.15;;;;;;;;;;5056217;28;20068;-59
2024/04/02 07:48:42;;;;;;;4.50;2.00;;;;;;;;;;5056142;28;20079;-59
2024/04/02 07:51:09;;;;;;;5.40;1.92;;;;;;;;;;5056123;28;20044;-60
2024/04/02 07:53:34;;;;;;;6.55;2.55;;;;;;;;;;5048055;28;20129;-58
2024/04/02 07:56:01;;;;;;;9.07;2.50;;;;;;;;;;5056252;28;20517;-60
2024/04/02 07:58:27;;;;;;;7.45;2.20;;;;;;;;;;5047836;28;20056;-60
2024/04/02 08:00:55;;;;;;;8.32;2.40;;;;;;;;;;5056121;28;20053;-60
2024/04/02 08:03:21;;;;;;;7.43;2.10;;;;;;;;;;5056112;28;20061;-58
2024/04/02 08:05:55;;;;;;;6.57;1.92;;;;;;;;;;5055665;28;20081;-60
2024/04/02 08:08:21;;;;;;;7.93;2.40;;;;;;;;;;5047186;28;20060;-60
2024/04/02 08:10:48;;;;;;;5.18;2.30;;;;;;;;;;5055991;28;20127;-60
2024/04/02 08:13:14;;;;;;;7.97;2.50;;;;;;;;;;5047628;28;20053;-60
2024/04/02 08:15:41;;;;;;;6.30;2.15;;;;;;;;;;5055634;28;20083;-60
2024/04/02 08:18:08;;;;;;;9.32;2.40;;;;;;;;;;5047279;28;20056;-60
2024/04/02 08:20:35;;;;;;;9.27;3.33;;;;;;;;;;5055841;28;20057;-59
2024/04/02 08:23:00;;;;;;;6.40;2.40;;;;;;;;;;5048064;28;20403;-60
2024/04/02 08:25:27;;;;;;;7.45;2.60;;;;;;;;;;5054644;28;20330;-60
2024/04/02 08:27:54;;;;;;;7.97;2.15;;;;;;;;;;5049035;28;20053;-58
2024/04/02 08:30:20;;;;;;;11.80;2.83;;;;;;;;;;5053556;28;20525;-60
2024/04/02 08:32:46;;;;;;;7.32;2.38;;;;;;;;;;5049446;28;20049;-58
2024/04/02 08:35:15;;;;;;;8.15;2.40;;;;;;;;;;5052194;28;20486;-58
2024/04/02 08:37:40;;;;;;;6.38;2.50;;;;;;;;;;5050710;28;20061;-58
2024/04/02 08:40:09;;;;;;;5.78;1.98;;;;;;;;;;5051625;28;20053;-57
2024/04/02 08:42:37;;;;;;;9.38;2.53;;;;;;;;;;5051252;28;20065;-60
2024/04/02 08:45:05;;;;;;;6.90;2.38;;;;;;;;;;5051069;28;20053;-57
2024/04/02 08:47:31;;;;;;;8.90;2.50;;;;;;;;;;5054985;28;20979;-57
2024/04/02 08:49:58;;;;;;;8.27;2.38;;;;;;;;;;5054452;28;20099;-57
2024/04/02 08:52:26;;;;;;;9.07;2.45;;;;;;;;;;5052291;28;20486;-58
2024/04/02 08:54:52;;;;;;;6.32;2.30;;;;;;;;;;5049702;28;20057;-58
2024/04/02 08:57:19;;;;;;;7.00;2.15;;;;;;;;;;5053008;28;20082;-58
2024/04/02 08:59:48;;;;;;;5.75;2.42;;;;;;;;;;5048572;28;20501;-58
2024/04/02 09:02:16;;;;;;;9.68;2.10;;;;;;;;;;5053544;28;20053;-57
2024/04/02 09:04:41;;;;;;;9.43;2.55;;;;;;;;;;5048208;28;20057;-58
2024/04/02 09:07:08;;;;;;;7.07;2.03;;;;;;;;;;5054400;28;20132;-58
2024/04/02 09:09:35;;;;;;;7.88;2.22;;;;;;;;;;5047071;28;20053;-57
2024/04/02 09:12:04;;;;;;;7.00;1.80;;;;;;;;;;5054503;28;20049;-57
2024/04/02 09:14:32;;;;;;;5.38;1.52;;;;;;;;;;5054657;28;20072;-58
2024/04/02 09:16:59;;;;;;;5.97;2.30;;;;;;;;;;5054644;28;20049;-57
2024/04/02 09:19:25;;;;;;;5.97;1.88;;;;;;;;;;5046806;28;20053;-57
2024/04/02 09:21:52;;;;;;;9.35;1.90;;;;;;;;;;5053998;28;20068;-57
2024/04/02 09:24:18;;;;;;;7.20;1.90;;;;;;;;;;5046477;28;20060;-57
2024/04/02 09:26:46;;;;;;;7.18;2.00;;;;;;;;;;5053925;28;20048;-57
2024/04/02 09:29:12;;;;;;;7.35;2.50;;;;;;;;;;5046421;28;20053;-57
2024/04/02 09:31:40;;;;;;;6.88;1.73;;;;;;;;;;5054264;28;20056;-57
2024/04/02 09:34:07;;;;;;;5.45;1.67;;;;;;;;;;5046419;28;20410;-58
2024/04/02 09:36:42;;;;;;;4.72;1.88;;;;;;;;;;5054073;28;20053;-57
2024/04/02 09:39:09;;;;;;;5.65;1.80;;;;;;;;;;5046094;28;20057;-56
2024/04/02 09:41:36;;;;;;;5.03;1.60;;;;;;;;;;5053807;28;20060;-58
2024/04/02 09:44:04;;;;;;;3.90;1.70;;;;;;;;;;5046089;28;20402;-58
2024/04/02 09:46:31;;;;;;;5.35;1.58;;;;;;;;;;5053421;28;20064;-58
2024/04/02 09:48:58;;;;;;;5.80;1.83;;;;;;;;;;5053731;28;20060;-58
2024/04/02 09:51:25;;;;;;;6.93;1.90;;;;;;;;;;5053916;28;20056;-58
2024/04/02 09:53:51;;;;;;;5.40;1.70;;;;;;;;;;5046079;28;20418;-58
2024/04/02 09:56:18;;;;;;;8.10;1.80;;;;;;;;;;5054202;28;20049;-58
2024/04/02 09:58:46;;;;;;;5.35;1.50;;;;;;;;;;5054431;28;20163;-58
2024/04/02 10:01:17;;;;;;;6.97;2.00;;;;;;;;;;5054025;28;20143;-59
2024/04/02 10:03:45;;;;;;;5.00;1.88;;;;;;;;;;5053021;28;20053;-59
2024/04/02 10:06:11;;;;;;;7.40;1.90;;;;;;;;;;5053872;28;20053;-58
2024/04/02 10:08:37;;;;;;;4.53;1.83;;;;;;;;;;5045855;28;20395;-58
2024/04/02 10:11:04;;;;;;;5.13;1.85;;;;;;;;;;5053857;28;20049;-57
2024/04/02 10:13:33;;;;;;;4.68;1.88;;;;;;;;;;5045634;28;20049;-58
2024/04/02 10:16:00;;;;;;;6.32;2.03;;;;;;;;;;5053079;28;20071;-58
2024/04/02 10:18:29;;;;;;;5.63;1.70;;;;;;;;;;5044968;28;20057;-58
2024/04/02 10:20:56;;;;;;;3.83;1.40;;;;;;;;;;5053892;28;20053;-57
2024/04/02 10:23:23;;;;;;;6.57;1.90;;;;;;;;;;5045152;28;20510;-57
2024/04/02 10:25:50;;;;;;;5.65;1.60;;;;;;;;;;5053298;28;20055;-58
2024/04/02 10:28:22;;;;;;;6.60;1.70;;;;;;;;;;5045343;28;20394;-57
2024/04/02 10:30:49;;;;;;;7.15;1.60;;;;;;;;;;5052878;28;20081;-57
2024/04/02 10:33:17;;;;;;;7.95;1.77;;;;;;;;;;5044968;28;20061;-58
2024/04/02 10:35:45;;;;;;;5.97;1.63;;;;;;;;;;5052990;28;20049;-58
2024/04/02 10:38:11;;;;;;;7.68;1.95;;;;;;;;;;5044836;28;20057;-58
2024/04/02 10:40:38;;;;;;;7.72;2.25;;;;;;;;;;5053201;28;20478;-57
2024/04/02 10:43:04;;;;;;;6.07;1.48;;;;;;;;;;5045240;28;20060;-58
2024/04/02 10:45:31;;;;;;;3.90;1.70;;;;;;;;;;5044817;28;20053;-58
2024/04/02 10:47:57;;;;;;;7.18;1.80;;;;;;;;;;5052974;28;20056;-58
2024/04/02 10:50:27;;;;;;;4.13;1.52;;;;;;;;;;5053028;28;20044;-57
2024/04/02 10:52:54;;;;;;;5.40;1.75;;;;;;;;;;5053068;28;20056;-57
2024/04/02 10:55:22;;;;;;;5.85;2.03;;;;;;;;;;5052353;28;20048;-58
2024/04/02 10:57:48;;;;;;;4.55;1.50;;;;;;;;;;5047063;28;20514;-57
2024/04/02 11:00:15;;;;;;;5.38;1.38;;;;;;;;;;5050603;28;20049;-57
2024/04/02 11:02:42;;;;;;;3.95;1.23;;;;;;;;;;5047545;28;20467;-58
2024/04/02 11:05:12;;;;;;;3.50;1.58;;;;;;;;;;5049395;28;20048;-57
2024/04/02 11:07:38;;;;;;;4.18;1.35;;;;;;;;;;5048257;28;20053;-57
2024/04/02 11:10:07;;;;;;;3.72;1.23;;;;;;;;;;5048681;28;20055;-57
2024/04/02 11:12:32;;;;;;;4.25;1.58;;;;;;;;;;5048627;28;20054;-57
2024/04/02 11:14:59;;;;;;;5.13;1.40;;;;;;;;;;5047510;28;20055;-57
2024/04/02 11:17:25;;;;;;;3.85;1.38;;;;;;;;;;5052024;28;20053;-57
2024/04/02 11:19:52;;;;;;;2.83;1.02;;;;;;;;;;5052393;28;20544;-57
2024/04/02 11:25:11;;;;;;;3.75;1.10;;;;;;;;;;5054875;28;20053;-58
2024/04/02 11:27:38;;;;;;;3.90;1.42;;;;;;;;;;5048291;28;20054;-58
2024/04/02 11:30:05;;;;;;;4.95;2.30;;;;;;;;;;5048541;28;20063;-58
2024/04/02 11:32:31;;;;;;;3.58;1.52;;;;;;;;;;5048839;28;20494;-58
2024/04/02 11:34:59;;;;;;;4.70;1.23;;;;;;;;;;5047307;28;20053;-58
2024/04/02 11:37:25;;;;;;;2.70;1.30;;;;;;;;;;5049382;28;20052;-57
2024/04/02 11:39:53;;;;;;;5.20;1.33;;;;;;;;;;5046149;28;20490;-57
2024/04/02 11:42:20;;;;;;;3.72;1.05;;;;;;;;;;5049692;28;20056;-58
2024/04/02 11:44:47;;;;;;;3.03;1.02;;;;;;;;;;5045617;28;20053;-57
2024/04/02 11:47:14;;;;;;;4.47;1.27;;;;;;;;;;5051598;28;20429;-57
2024/04/02 11:49:40;;;;;;;3.00;1.02;;;;;;;;;;5052059;28;20067;-57
2024/04/02 11:52:07;;;;;;;3.58;1.10;;;;;;;;;;5051722;28;20479;-58
2024/04/02 11:54:33;;;;;;;3.08;0.98;;;;;;;;;;5044003;28;20060;-57
2024/04/02 12:02:30;;;;;;;3.50;1.30;;;;;;;;;;5054417;28;20499;-58
2024/04/02 12:04:57;;;;;;;5.15;1.30;;;;;;;;;;5046911;28;20076;-57
2024/04/02 12:07:24;;;;;;;4.43;1.15;;;;;;;;;;5049546;28;20065;-58
2024/04/02 12:09:55;;;;;;;3.35;1.10;;;;;;;;;;5046130;28;20055;-58
2024/04/02 12:12:20;;;;;;;5.43;1.67;;;;;;;;;;5049873;28;20478;-57
2024/04/02 12:14:49;;;;;;;3.78;1.55;;;;;;;;;;5045535;28;20049;-57
2024/04/02 12:17:15;;;;;;;4.20;1.30;;;;;;;;;;5050472;28;20053;-57
2024/04/02 12:19:42;;;;;;;7.18;1.92;;;;;;;;;;5044769;28;20052;-57
2024/04/02 12:22:09;;;;;;;5.10;1.90;;;;;;;;;;5051074;28;20048;-58
2024/04/02 12:24:36;;;;;;;4.45;1.48;;;;;;;;;;5044155;28;20053;-58
2024/04/02 12:27:02;;;;;;;4.07;1.52;;;;;;;;;;5053142;28;20052;-58
2024/04/02 12:29:29;;;;;;;5.85;1.70;;;;;;;;;;5047420;28;20052;-58
2024/04/02 12:31:57;;;;;;;7.60;2.10;;;;;;;;;;5055991;28;20482;-58
2024/04/02 12:34:23;;;;;;;5.75;1.73;;;;;;;;;;5047426;28;20053;-58
2024/04/02 12:36:49;;;;;;;4.75;1.58;;;;;;;;;;5054929;28;20057;-58
2024/04/02 12:39:16;;;;;;;5.18;1.45;;;;;;;;;;5047073;28;20048;-58
2024/04/02 12:41:42;;;;;;;5.43;1.35;;;;;;;;;;5054986;28;20060;-58
2024/04/02 12:44:09;;;;;;;3.83;1.50;;;;;;;;;;5047265;28;20048;-58
2024/04/02 12:46:35;;;;;;;2.90;1.15;;;;;;;;;;5055164;28;20060;-58
2024/04/02 12:49:06;;;;;;;2.58;1.10;;;;;;;;;;5055324;28;20049;-58
2024/04/02 12:51:32;;;;;;;2.92;0.82;;;;;;;;;;5055342;28;20506;-58
2024/04/02 12:53:59;;;;;;;2.25;1.00;;;;;;;;;;5047101;28;20068;-58
2024/04/02 12:56:24;;;;;;;2.53;0.80;;;;;;;;;;5055641;28;20053;-58
2024/04/02 12:58:52;;;;;;;2.58;0.90;;;;;;;;;;5046845;28;20075;-58
2024/04/02 13:01:18;;;;;;;4.07;0.90;;;;;;;;;;5054634;28;20053;-58
2024/04/02 13:03:45;;;;;;;3.45;1.15;;;;;;;;;;5046054;28;20049;-58
2024/04/02 13:06:13;;;;;;;1.98;0.70;;;;;;;;;;5055170;28;20053;-58
2024/04/02 13:08:41;;;;;;;3.90;1.10;;;;;;;;;;5046425;28;20064;-58
2024/04/02 13:11:09;;;;;;;2.88;0.80;;;;;;;;;;5054729;28;20052;-58
2024/04/02 13:13:35;;;;;;;2.58;0.98;;;;;;;;;;5046255;28;20045;-58
2024/04/02 13:16:07;;;;;;;3.08;1.02;;;;;;;;;;5054494;28;20041;-58
2024/04/02 13:18:33;;;;;;;2.65;1.15;;;;;;;;;;5046511;28;20408;-58
2024/04/02 13:20:59;;;;;;;4.15;1.00;;;;;;;;;;5054052;28;20048;-58
2024/04/02 13:23:27;;;;;;;3.45;0.90;;;;;;;;;;5054326;28;20045;-58
2024/04/02 13:25:53;;;;;;;3.75;1.08;;;;;;;;;;5054193;28;20053;-58
2024/04/02 13:28:19;;;;;;;3.08;1.20;;;;;;;;;;5046232;28;20053;-58
2024/04/02 13:30:46;;;;;;;3.28;0.88;;;;;;;;;;5053832;28;20052;-58
2024/04/02 13:33:12;;;;;;;2.85;0.95;;;;;;;;;;5046480;28;20467;-58
2024/04/02 13:35:39;;;;;;;2.88;1.08;;;;;;;;;;5054082;28;20050;-58
2024/04/02 13:38:05;;;;;;;3.05;1.00;;;;;;;;;;5045382;28;20061;-58
2024/04/02 13:40:33;;;;;;;2.95;1.15;;;;;;;;;;5046394;28;20049;-58
2024/04/02 13:42:59;;;;;;;2.17;0.90;;;;;;;;;;5046623;28;20072;-58
2024/04/02 13:45:26;;;;;;;3.40;1.42;;;;;;;;;;5053233;28;20080;-57
2024/04/02 13:47:52;;;;;;;3.85;1.95;;;;;;;;;;5053705;28;20067;-58
2024/04/02 13:50:19;;;;;;;3.53;1.15;;;;;;;;;;5053657;28;20053;-57
2024/04/02 13:52:45;;;;;;;5.38;1.35;;;;;;;;;;5054159;28;20056;-58
2024/04/02 13:55:11;;;;;;;4.43;1.10;;;;;;;;;;5053372;28;20053;-57
2024/04/02 13:57:39;;;;;;;4.82;1.50;;;;;;;;;;5049409;28;20075;-57
2024/04/02 14:00:06;;;;;;;4.05;1.25;;;;;;;;;;5050016;28;20060;-57
2024/04/02 14:02:33;;;;;;;4.25;1.30;;;;;;;;;;5049859;28;20084;-58
2024/04/02 14:04:59;;;;;;;3.60;1.20;;;;;;;;;;5049261;28;20060;-57
2024/04/02 14:07:31;;;;;;;4.07;1.13;;;;;;;;;;5051157;28;20049;-58
2024/04/02 14:09:57;;;;;;;4.18;1.67;;;;;;;;;;5048956;28;20048;-58
2024/04/02 14:12:23;;;;;;;4.72;1.52;;;;;;;;;;5053375;28;20107;-58
2024/04/02 14:14:51;;;;;;;7.78;1.92;;;;;;;;;;5053456;28;20406;-58
2024/04/02 14:17:18;;;;;;;4.43;1.58;;;;;;;;;;5051851;28;20053;-58
2024/04/02 14:19:45;;;;;;;6.28;2.10;;;;;;;;;;5046682;28;20064;-58
2024/04/02 14:22:12;;;;;;;4.95;1.92;;;;;;;;;;5052710;28;20410;-58
2024/04/02 14:24:37;;;;;;;5.32;1.90;;;;;;;;;;5045818;28;20053;-58
2024/04/02 14:27:04;;;;;;;3.42;1.48;;;;;;;;;;5052886;28;20052;-58
2024/04/02 14:29:30;;;;;;;5.25;1.70;;;;;;;;;;5053192;28;20063;-58
2024/04/02 14:31:58;;;;;;;4.72;1.50;;;;;;;;;;5053119;28;20475;-57
2024/04/02 14:34:25;;;;;;;3.22;1.42;;;;;;;;;;5045359;28;20055;-58
2024/04/02 14:36:52;;;;;;;5.45;1.52;;;;;;;;;;5052352;28;20045;-58
2024/04/02 14:39:17;;;;;;;4.20;1.88;;;;;;;;;;5052836;28;20059;-57
2024/04/02 14:41:44;;;;;;;5.32;1.65;;;;;;;;;;5052437;28;20048;-58
2024/04/02 14:44:10;;;;;;;5.10;1.55;;;;;;;;;;5044790;28;20049;-58
2024/04/02 14:46:37;;;;;;;4.85;1.55;;;;;;;;;;5052515;28;20065;-58
2024/04/02 14:49:04;;;;;;;4.78;1.40;;;;;;;;;;5052802;28;20049;-58